createdAt,value
2018-04-23T13:33:58.213Z,23.40
2018-04-23T13:36:25.698Z,23.40
2018-04-23T13:38:53.941Z,23.40
2018-04-23T13:41:21.415Z,23.30
2018-04-23T13:43:48.869Z,23.30
2018-04-23T13:46:16.342Z,23.30
2018-04-23T13:48:44.574Z,23.20
2018-04-23T13:51:12.799Z,23.20
2018-04-23T13:53:41.034Z,23.20
2018-04-23T13:56:08.477Z,23.10
2018-04-23T13:58:35.949Z,23.10
2018-04-23T14:01:03.410Z,23.10
2018-04-23T14:03:30.857Z,23.10
2018-04-23T14:05:58.302Z,23.10
2018-04-23T14:08:25.772Z,23.00
2018-04-23T14:10:53.247Z,23.00
2018-04-23T14:13:20.701Z,23.00
2018-04-23T14:15:48.946Z,23.10
2018-04-23T14:18:16.387Z,23.10
2018-04-23T14:24:54.626Z,23.50
2018-04-23T14:27:22.082Z,23.50
2018-04-23T14:29:49.564Z,23.90
2018-04-23T14:32:17.066Z,23.80
2018-04-23T14:34:44.541Z,23.30
2018-04-23T14:37:12.011Z,23.00
2018-04-23T14:39:39.477Z,22.80
2018-04-23T14:42:06.924Z,22.20
2018-04-23T14:44:34.405Z,21.00
2018-04-23T14:47:01.871Z,20.60
2018-04-23T14:49:29.330Z,20.30
2018-04-23T14:51:56.770Z,20.40
2018-04-23T14:54:24.234Z,20.30
2018-04-23T14:56:51.694Z,20.30
2018-04-23T14:59:19.961Z,20.30
2018-04-23T15:01:47.389Z,20.20
2018-04-23T15:04:14.853Z,20.30
2018-04-23T15:06:42.316Z,20.30
2018-04-23T15:09:09.763Z,20.50
2018-04-23T15:11:37.251Z,20.50
2018-04-23T15:14:05.526Z,19.80
2018-04-23T15:16:33.000Z,19.80
2018-04-23T15:19:00.442Z,19.60
2018-04-23T15:21:28.673Z,19.70
2018-04-23T15:23:56.142Z,19.60
2018-04-23T15:26:23.610Z,19.80
2018-04-23T15:28:51.070Z,20.00
2018-04-23T15:31:18.523Z,20.00
2018-04-23T15:33:46.049Z,19.90
2018-04-23T15:36:13.490Z,19.50
2018-04-23T15:38:40.959Z,19.20
2018-04-23T15:41:08.800Z,19.00
2018-04-23T15:43:36.296Z,18.80
2018-04-23T15:46:03.758Z,18.60
2018-04-23T15:48:31.207Z,18.50
2018-04-23T15:50:58.710Z,18.60
2018-04-23T15:53:26.937Z,18.50
2018-04-23T15:55:54.412Z,18.40
2018-04-23T15:58:21.912Z,18.50
2018-04-23T16:00:49.378Z,18.40
2018-04-23T16:03:16.847Z,18.10
2018-04-23T16:05:44.290Z,18.00
2018-04-23T16:08:11.894Z,18.20
2018-04-23T16:10:39.354Z,18.40
2018-04-23T16:13:06.798Z,18.50
2018-04-23T16:15:34.267Z,18.50
2018-04-23T16:18:01.718Z,18.90
2018-04-23T16:20:29.176Z,19.30
2018-04-23T16:22:56.621Z,19.40
2018-04-23T16:25:24.091Z,19.20
2018-04-23T16:27:51.590Z,18.90
2018-04-23T16:30:19.245Z,18.40
2018-04-23T16:32:47.471Z,17.90
2018-04-23T16:35:15.303Z,17.90
2018-04-23T16:37:42.771Z,17.80
2018-04-23T16:40:10.218Z,17.50
2018-04-23T16:42:37.684Z,17.40
2018-04-23T16:45:05.130Z,17.30
2018-04-23T16:47:32.619Z,17.30
2018-04-23T16:50:00.067Z,17.60
2018-04-23T16:52:27.558Z,17.70
2018-04-23T16:54:55.828Z,17.50
2018-04-23T16:57:23.304Z,17.40
2018-04-23T16:59:50.742Z,17.30
2018-04-23T17:02:18.970Z,16.90
2018-04-23T17:04:46.442Z,16.80
2018-04-23T17:07:13.922Z,16.90
2018-04-23T17:09:42.282Z,16.90
2018-04-23T17:12:09.766Z,16.90
2018-04-23T17:14:38.027Z,16.80
2018-04-23T17:17:05.466Z,16.70
2018-04-23T17:19:32.975Z,16.60
2018-04-23T17:22:00.454Z,16.50
2018-04-23T17:24:27.899Z,16.40
2018-04-23T17:26:55.394Z,16.30
2018-04-23T17:29:22.869Z,16.20
2018-04-23T17:31:50.306Z,16.10
2018-04-23T17:34:17.782Z,16.10
2018-04-23T17:36:45.277Z,16.00
2018-04-23T17:39:12.769Z,16.00
2018-04-23T17:41:40.273Z,15.80
2018-04-23T17:44:07.675Z,15.70
2018-04-23T17:46:35.142Z,15.60
2018-04-23T17:49:02.640Z,15.50
2018-04-23T17:51:30.894Z,15.20
2018-04-23T17:53:58.338Z,15.20
2018-04-23T17:56:25.829Z,15.10
2018-04-23T17:58:53.313Z,15.00
2018-04-23T18:01:20.756Z,14.90
2018-04-23T18:03:48.238Z,14.90
2018-04-23T18:06:15.714Z,14.70
2018-04-23T18:08:43.175Z,14.60
2018-04-23T18:11:10.627Z,14.40
2018-04-23T18:13:38.098Z,14.20
2018-04-23T18:16:05.564Z,14.00
2018-04-23T18:18:33.802Z,13.70
2018-04-23T18:21:01.286Z,13.60
2018-04-23T18:23:28.761Z,13.50
2018-04-23T18:25:57.014Z,13.20
2018-04-23T18:28:25.275Z,13.00
2018-04-23T18:30:52.765Z,12.90
2018-04-23T18:33:20.980Z,12.70
2018-04-23T18:35:48.447Z,12.60
2018-04-23T18:38:15.917Z,12.50
2018-04-23T18:40:43.386Z,12.40
2018-04-23T18:43:10.855Z,12.30
2018-04-23T18:45:39.113Z,12.10
2018-04-23T18:48:06.553Z,12.00
2018-04-23T18:50:34.046Z,12.10
2018-04-23T18:53:01.482Z,12.00
2018-04-23T18:55:28.938Z,11.90
2018-04-23T18:57:56.402Z,11.90
2018-04-23T19:00:23.897Z,11.80
2018-04-23T19:02:51.366Z,11.90
2018-04-23T19:05:18.847Z,11.80
2018-04-23T19:07:46.334Z,11.80
2018-04-23T19:10:14.573Z,11.50
2018-04-23T19:12:42.071Z,11.50
2018-04-23T19:15:10.318Z,11.60
2018-04-23T19:17:37.782Z,11.50
2018-04-23T19:20:05.259Z,11.50
2018-04-23T19:22:33.476Z,11.40
2018-04-23T19:25:00.955Z,11.40
2018-04-23T19:27:28.496Z,11.60
2018-04-23T19:29:56.691Z,11.60
2018-04-23T19:32:24.161Z,11.50
2018-04-23T19:34:51.646Z,11.40
2018-04-23T19:37:19.138Z,11.40
2018-04-23T19:39:46.591Z,11.20
2018-04-23T19:42:14.075Z,11.10
2018-04-23T19:44:41.518Z,11.30
2018-04-23T19:47:09.005Z,11.30
2018-04-23T19:49:37.249Z,11.20
2018-04-23T19:52:04.734Z,11.10
2018-04-23T19:54:32.998Z,11.00
2018-04-23T19:57:00.447Z,11.00
2018-04-23T19:59:27.945Z,11.00
2018-04-23T20:01:55.395Z,11.00
2018-04-23T20:04:23.651Z,11.00
2018-04-23T20:06:51.129Z,10.90
2018-04-23T20:09:18.570Z,10.90
2018-04-23T20:11:46.795Z,10.70
2018-04-23T20:14:14.249Z,10.60
2018-04-23T20:16:41.743Z,10.70
2018-04-23T20:19:09.209Z,10.70
2018-04-23T20:21:37.454Z,10.50
2018-04-23T20:24:04.923Z,10.50
2018-04-23T20:26:32.366Z,10.60
2018-04-23T20:28:59.853Z,10.70
2018-04-23T20:31:28.073Z,10.70
2018-04-23T20:33:55.537Z,10.70
2018-04-23T20:36:23.010Z,10.70
2018-04-23T20:38:50.471Z,10.70
2018-04-23T20:41:17.922Z,10.60
2018-04-23T20:43:45.398Z,10.60
2018-04-23T20:46:12.884Z,10.60
2018-04-23T20:48:40.362Z,10.50
2018-04-23T20:51:07.846Z,10.40
2018-04-23T20:53:35.310Z,10.40
2018-04-23T20:56:02.790Z,10.40
2018-04-23T20:58:31.007Z,10.40
2018-04-23T21:00:58.519Z,10.30
2018-04-23T21:03:25.938Z,10.40
2018-04-23T21:05:53.406Z,10.30
2018-04-23T21:08:20.870Z,10.10
2018-04-23T21:10:48.326Z,10.10
2018-04-23T21:13:15.815Z,10.00
2018-04-23T21:15:43.291Z,10.10
2018-04-23T21:18:10.755Z,10.10
2018-04-23T21:20:38.198Z,9.90
2018-04-23T21:23:05.663Z,9.90
2018-04-23T21:25:33.122Z,9.80
2018-04-23T21:28:00.578Z,9.90
2018-04-23T21:30:28.054Z,9.80
2018-04-23T21:32:55.534Z,9.80
2018-04-23T21:35:23.018Z,9.80
2018-04-23T21:37:55.379Z,9.90
2018-04-23T21:40:22.862Z,9.90
2018-04-23T21:42:50.322Z,9.90
2018-04-23T21:45:17.798Z,9.90
2018-04-23T21:47:45.261Z,9.90
2018-04-23T21:50:12.736Z,10.00
2018-04-23T21:52:40.238Z,9.90
2018-04-23T21:55:08.483Z,9.90
2018-04-23T21:57:35.919Z,9.80
2018-04-23T22:00:03.364Z,9.80
2018-04-23T22:02:30.833Z,9.70
2018-04-23T22:04:58.270Z,9.70
2018-04-23T22:07:25.758Z,9.70
2018-04-23T22:09:53.212Z,9.60
2018-04-23T22:12:20.698Z,9.50
2018-04-23T22:14:48.183Z,9.50
2018-04-23T22:17:15.626Z,9.30
2018-04-23T22:19:43.110Z,9.40
2018-04-23T22:22:10.590Z,9.40
2018-04-23T22:24:38.030Z,9.40
2018-04-23T22:27:05.514Z,9.10
2018-04-23T22:29:32.967Z,9.00
2018-04-23T22:32:00.412Z,9.00
2018-04-23T22:34:27.901Z,9.10
2018-04-23T22:36:56.158Z,9.10
2018-04-23T22:39:23.622Z,9.00
2018-04-23T22:41:51.830Z,8.90
2018-04-23T22:44:19.285Z,8.80
2018-04-23T22:46:46.744Z,8.70
2018-04-23T22:49:14.221Z,8.60
2018-04-23T22:51:41.694Z,8.60
2018-04-23T22:54:09.146Z,8.40
2018-04-23T22:56:36.606Z,8.20
2018-04-23T22:59:04.082Z,8.10
2018-04-23T23:01:32.313Z,8.20
2018-04-23T23:03:59.787Z,8.10
2018-04-23T23:06:27.238Z,8.10
2018-04-23T23:08:54.718Z,8.20
2018-04-23T23:11:22.195Z,8.20
2018-04-23T23:13:49.658Z,8.10
2018-04-23T23:16:17.909Z,8.00
2018-04-23T23:18:45.438Z,8.00
2018-04-23T23:21:12.822Z,7.90
2018-04-23T23:23:40.282Z,7.90
2018-04-23T23:26:07.730Z,7.80
2018-04-23T23:28:35.175Z,7.90
2018-04-23T23:31:02.634Z,7.80
2018-04-23T23:33:30.102Z,7.90
2018-04-23T23:35:57.562Z,7.80
2018-04-23T23:38:25.046Z,7.80
2018-04-23T23:40:52.478Z,7.80
2018-04-23T23:43:19.958Z,7.90
2018-04-23T23:45:47.421Z,7.80
2018-04-23T23:48:14.897Z,7.70
2018-04-23T23:50:42.341Z,7.70
2018-04-23T23:53:09.834Z,7.80
2018-04-23T23:55:37.283Z,7.80
2018-04-23T23:58:04.738Z,8.00
